createdAt,value
2019-01-17T00:02:00.863Z,95535.56
2019-01-17T00:04:48.387Z,95529.39
2019-01-17T00:10:11.669Z,95527.16
2019-01-17T00:12:59.191Z,95515.96
2019-01-17T00:18:45.035Z,95528.95
2019-01-17T00:21:32.634Z,95522.09
2019-01-17T00:24:20.177Z,95509.36
2019-01-17T00:27:07.701Z,95517.63
2019-01-17T00:32:30.692Z,95518.44
2019-01-17T00:35:18.205Z,95517.95
2019-01-17T00:38:05.873Z,95505.25
2019-01-17T00:40:53.394Z,95531.36
2019-01-17T00:43:41.037Z,95520.37
2019-01-17T00:46:40.577Z,95519.01
2019-01-17T00:49:28.210Z,95524.92
2019-01-17T00:55:04.827Z,95535.80
2019-01-17T00:57:52.347Z,95523.36
2019-01-17T01:00:39.952Z,95535.25
2019-01-17T01:03:27.469Z,95530.22
2019-01-17T01:06:15.341Z,95524.86
2019-01-17T01:09:02.990Z,95522.38
2019-01-17T01:14:46.387Z,95520.66
2019-01-17T01:17:33.907Z,95515.11
2019-01-17T01:20:21.545Z,95537.80
2019-01-17T01:23:09.124Z,95519.66
2019-01-17T01:25:57.002Z,95524.06
2019-01-17T01:28:44.523Z,95537.80
2019-01-17T01:31:32.395Z,95514.36
2019-01-17T01:37:09.007Z,95510.70
2019-01-17T01:39:56.529Z,95509.26
2019-01-17T01:42:44.249Z,95530.50
2019-01-17T01:45:31.836Z,95500.94
2019-01-17T01:48:19.421Z,95525.88
2019-01-17T01:51:06.945Z,95507.27
2019-01-17T01:53:35.407Z,95525.41
2019-01-17T01:56:03.801Z,95511.44
2019-01-17T01:58:32.195Z,95512.13
2019-01-17T02:01:00.690Z,95518.38
2019-01-17T02:03:29.083Z,95513.52
2019-01-17T02:05:57.480Z,95522.30
2019-01-17T02:08:25.895Z,95519.13
2019-01-17T02:10:54.359Z,95502.06
2019-01-17T02:13:22.815Z,95502.02
2019-01-17T02:15:51.422Z,95509.11
2019-01-17T02:18:19.807Z,95505.46
2019-01-17T02:20:48.273Z,95505.27
2019-01-17T02:23:16.757Z,95505.13
2019-01-17T02:25:45.149Z,95509.73
2019-01-17T02:28:13.546Z,95507.94
2019-01-17T02:33:16.008Z,95509.92
2019-01-17T02:35:44.621Z,95513.57
2019-01-17T02:38:13.023Z,95520.73
2019-01-17T02:40:41.416Z,95509.87
2019-01-17T02:43:09.905Z,95511.92
2019-01-17T02:45:38.303Z,95500.80
2019-01-17T02:48:06.839Z,95501.42
2019-01-17T02:50:35.332Z,95500.55
2019-01-17T02:53:03.853Z,95501.31
2019-01-17T02:55:32.252Z,95502.06
2019-01-17T02:58:00.807Z,95512.44
2019-01-17T03:00:29.198Z,95511.89
2019-01-17T03:02:57.592Z,95507.62
2019-01-17T03:05:26.129Z,95506.31
2019-01-17T03:07:54.514Z,95504.06
2019-01-17T03:10:22.909Z,95506.41
2019-01-17T03:12:51.406Z,95512.14
2019-01-17T03:15:19.802Z,95510.91
2019-01-17T03:17:48.269Z,95526.30
2019-01-17T03:20:16.754Z,95517.36
2019-01-17T03:22:45.143Z,95526.50
2019-01-17T03:25:13.601Z,95524.11
2019-01-17T03:30:55.616Z,95518.19
2019-01-17T03:33:24.193Z,95524.23
2019-01-17T03:35:52.585Z,95525.53
2019-01-17T03:38:20.983Z,95524.42
2019-01-17T03:40:49.410Z,95516.45
2019-01-17T03:43:17.795Z,95527.77
2019-01-17T03:45:46.259Z,95539.94
2019-01-17T03:48:14.754Z,95546.59
2019-01-17T03:50:43.146Z,95537.50
2019-01-17T03:53:11.610Z,95545.20
2019-01-17T03:58:15.435Z,95547.76
2019-01-17T04:00:43.829Z,95557.66
2019-01-17T04:03:12.222Z,95546.66
2019-01-17T04:05:40.643Z,95550.20
2019-01-17T04:08:09.184Z,95541.68
2019-01-17T04:10:37.565Z,95544.06
2019-01-17T04:13:05.990Z,95540.94
2019-01-17T04:15:34.453Z,95550.34
2019-01-17T04:18:02.847Z,95548.35
2019-01-17T04:20:31.267Z,95553.58
2019-01-17T04:22:59.653Z,95552.59
2019-01-17T04:25:28.045Z,95549.98
2019-01-17T04:27:56.547Z,95552.82
2019-01-17T04:30:24.935Z,95549.72
2019-01-17T04:32:53.322Z,95554.12
2019-01-17T04:37:55.387Z,95556.87
2019-01-17T04:40:23.810Z,95567.13
2019-01-17T04:42:52.207Z,95569.05
2019-01-17T04:45:20.605Z,95558.87
2019-01-17T04:50:22.836Z,95570.88
2019-01-17T04:53:03.660Z,95569.12
2019-01-17T04:55:32.075Z,95566.97
2019-01-17T04:58:00.456Z,95570.42
2019-01-17T05:00:28.865Z,95563.21
2019-01-17T05:02:57.263Z,95575.42
2019-01-17T05:05:25.652Z,95570.69
2019-01-17T05:10:28.421Z,95572.81
2019-01-17T05:15:30.638Z,95570.88
2019-01-17T05:17:59.059Z,95577.41
2019-01-17T05:20:46.781Z,95567.45
2019-01-17T05:25:49.057Z,95566.08
2019-01-17T05:28:17.497Z,95576.27
2019-01-17T05:30:45.873Z,95565.04
2019-01-17T05:33:14.256Z,95563.54
2019-01-17T05:38:30.106Z,95559.06
2019-01-17T05:40:58.501Z,95565.27
2019-01-17T05:43:26.985Z,95559.82
2019-01-17T05:45:55.395Z,95587.52
2019-01-17T05:48:23.797Z,95571.30
2019-01-17T05:51:11.552Z,95576.33
2019-01-17T05:57:12.227Z,95568.27
2019-01-17T05:59:40.618Z,95565.72
2019-01-17T06:02:09.014Z,95566.50
2019-01-17T06:04:37.443Z,95573.77
2019-01-17T06:07:05.850Z,95570.80
2019-01-17T06:09:34.239Z,95557.75
2019-01-17T06:12:02.672Z,95563.78
2019-01-17T06:14:31.053Z,95557.27
2019-01-17T06:16:59.448Z,95551.91
2019-01-17T06:22:01.447Z,95555.63
2019-01-17T06:27:03.997Z,95561.03
2019-01-17T06:29:32.396Z,95563.38
2019-01-17T06:34:34.379Z,95546.33
2019-01-17T06:39:36.764Z,95541.22
2019-01-17T06:42:24.370Z,95544.69
2019-01-17T06:44:52.770Z,95536.80
2019-01-17T06:47:21.223Z,95533.63
2019-01-17T06:52:23.286Z,95531.38
2019-01-17T06:54:51.748Z,95533.50
2019-01-17T06:57:20.136Z,95522.71
2019-01-17T06:59:48.578Z,95534.37
2019-01-17T07:02:17.158Z,95531.35
2019-01-17T07:04:45.552Z,95537.30
2019-01-17T07:07:13.948Z,95526.31
2019-01-17T07:09:42.365Z,95531.45
2019-01-17T07:12:10.754Z,95519.36
2019-01-17T07:14:39.146Z,95516.55
2019-01-17T07:17:07.730Z,95516.42
2019-01-17T07:19:36.121Z,95515.45
2019-01-17T07:22:04.608Z,95513.20
2019-01-17T07:27:07.203Z,95498.46
2019-01-17T07:29:35.648Z,95499.27
2019-01-17T07:43:14.476Z,95479.25
2019-01-17T07:48:17.430Z,95481.33
2019-01-17T07:50:45.862Z,95476.38
2019-01-17T07:53:14.258Z,95486.62
2019-01-17T07:55:47.580Z,95480.23
2019-01-17T07:58:52.726Z,95476.05
2019-01-17T08:01:21.132Z,95476.12
2019-01-17T08:03:49.528Z,95482.44
2019-01-17T08:06:37.266Z,95471.58
2019-01-17T08:09:46.175Z,95475.55
2019-01-17T08:14:49.913Z,95482.36
2019-01-17T08:17:18.348Z,95490.94
2019-01-17T08:19:46.742Z,95478.44
2019-01-17T08:22:15.134Z,95461.52
2019-01-17T08:24:43.556Z,95479.66
2019-01-17T08:27:31.144Z,95471.05
2019-01-17T08:29:59.559Z,95472.63
2019-01-17T08:32:27.954Z,95474.18
2019-01-17T08:34:56.348Z,95480.00
2019-01-17T08:39:58.682Z,95462.58
2019-01-17T08:42:27.117Z,95465.30
2019-01-17T08:44:55.516Z,95487.12
2019-01-17T08:47:23.907Z,95466.66
2019-01-17T08:49:52.333Z,95464.77
2019-01-17T08:52:20.729Z,95468.46
2019-01-17T08:54:49.125Z,95460.08
2019-01-17T08:57:17.579Z,95460.52
2019-01-17T08:59:45.979Z,95450.63
2019-01-17T09:02:14.381Z,95455.48
2019-01-17T09:04:42.813Z,95462.77
2019-01-17T09:07:11.209Z,95462.20
2019-01-17T09:09:39.601Z,95438.41
2019-01-17T09:14:41.700Z,95449.92
2019-01-17T09:17:10.092Z,95447.62
2019-01-17T09:22:12.891Z,95456.00
2019-01-17T09:24:42.176Z,95459.82
2019-01-17T09:27:11.453Z,95429.08
2019-01-17T09:29:39.846Z,95437.11
2019-01-17T09:32:27.586Z,95429.61
2019-01-17T09:34:55.980Z,95435.02
2019-01-17T09:37:24.374Z,95431.61
2019-01-17T09:39:52.806Z,95427.56
2019-01-17T09:42:21.269Z,95447.26
2019-01-17T09:44:49.666Z,95453.54
2019-01-17T09:50:52.060Z,95441.53
2019-01-17T09:53:20.628Z,95414.86
2019-01-17T09:55:49.016Z,95410.13
2019-01-17T09:58:17.404Z,95408.98
2019-01-17T10:00:45.904Z,95403.77
2019-01-17T10:03:14.298Z,95399.85
2019-01-17T10:05:42.692Z,95402.84
2019-01-17T10:08:11.192Z,95401.39
2019-01-17T10:10:39.608Z,95401.91
2019-01-17T10:13:08.004Z,95392.41
2019-01-17T10:16:16.419Z,95423.90
2019-01-17T10:19:24.788Z,95411.45
2019-01-17T10:22:31.812Z,95399.69
2019-01-17T10:25:40.184Z,95396.13
2019-01-17T10:28:47.190Z,95393.02
2019-01-17T10:31:55.532Z,95386.48
2019-01-17T10:35:02.579Z,95382.61
2019-01-17T10:38:09.562Z,95377.88
2019-01-17T10:41:16.660Z,95392.16
2019-01-17T10:44:25.020Z,95402.00
2019-01-17T10:47:33.434Z,95353.62
2019-01-17T10:50:41.823Z,95356.09
2019-01-17T10:53:50.250Z,95344.77
2019-01-17T10:56:57.243Z,95351.83
2019-01-17T11:00:05.666Z,95330.19
2019-01-17T11:03:12.686Z,95321.50
2019-01-17T11:06:19.706Z,95327.69
2019-01-17T11:09:28.020Z,95317.17
2019-01-17T11:12:17.354Z,95302.17
2019-01-17T11:15:24.346Z,95303.63
2019-01-17T11:18:32.767Z,95315.58
2019-01-17T11:21:39.754Z,95287.81
2019-01-17T11:24:47.108Z,95266.66
2019-01-17T11:27:55.542Z,95273.56
2019-01-17T11:31:02.560Z,95261.73
2019-01-17T11:34:10.886Z,95261.91
2019-01-17T11:37:18.051Z,95252.33
2019-01-17T11:40:26.370Z,95257.23
2019-01-17T11:43:34.724Z,95259.48
2019-01-17T11:46:41.710Z,95281.18
2019-01-17T11:49:48.901Z,95268.73
2019-01-17T11:52:55.880Z,95267.36
2019-01-17T11:56:04.214Z,95280.82
2019-01-17T11:59:12.522Z,95286.10
2019-01-17T12:02:19.648Z,95280.57
2019-01-17T12:05:00.383Z,95277.52
2019-01-17T12:10:02.773Z,95285.64
2019-01-17T12:12:31.258Z,95288.30
2019-01-17T12:20:42.099Z,95282.37
2019-01-17T12:23:10.570Z,95275.70
2019-01-17T12:25:38.962Z,95287.12
2019-01-17T12:28:07.348Z,95287.73
2019-01-17T12:30:35.796Z,95286.01
2019-01-17T12:33:04.192Z,95279.02
2019-01-17T12:35:32.573Z,95289.28
2019-01-17T12:38:01.004Z,95287.19
2019-01-17T12:40:29.404Z,95282.67
2019-01-17T12:42:57.807Z,95283.87
2019-01-17T12:50:35.074Z,95285.39
2019-01-17T12:53:22.758Z,95279.84
2019-01-17T12:56:10.580Z,95285.56
2019-01-17T13:01:12.790Z,95285.83
2019-01-17T13:06:28.716Z,95288.69
2019-01-17T13:08:57.109Z,95279.86
2019-01-17T13:11:25.503Z,95277.80
2019-01-17T13:16:27.529Z,95279.70
2019-01-17T13:18:55.922Z,95278.02
2019-01-17T13:23:58.745Z,95278.48
2019-01-17T13:26:46.503Z,95284.51
2019-01-17T13:29:14.889Z,95282.47
2019-01-17T13:31:43.286Z,95281.32
2019-01-17T13:34:11.727Z,95275.86
2019-01-17T13:36:40.709Z,95284.05
2019-01-17T13:39:10.233Z,95276.81
2019-01-17T13:41:38.669Z,95275.82
2019-01-17T13:44:07.227Z,95271.28
2019-01-17T13:46:55.050Z,95286.27
2019-01-17T13:49:42.638Z,95271.27
2019-01-17T13:54:45.300Z,95279.16
2019-01-17T13:57:13.738Z,95286.17
2019-01-17T13:59:42.135Z,95286.55
2019-01-17T14:02:29.916Z,95283.09
2019-01-17T14:04:58.311Z,95285.16
2019-01-17T14:07:26.732Z,95291.31
2019-01-17T14:12:28.807Z,95303.55
2019-01-17T14:14:57.231Z,95301.51
2019-01-17T14:17:25.621Z,95314.31
2019-01-17T14:19:54.008Z,95313.02
2019-01-17T14:27:58.166Z,95338.58
2019-01-17T14:31:06.471Z,95338.01
2019-01-17T14:33:34.898Z,95328.66
2019-01-17T14:36:03.299Z,95336.66
2019-01-17T14:38:31.695Z,95340.70
2019-01-17T14:43:34.059Z,95356.14
2019-01-17T14:46:02.488Z,95356.80
2019-01-17T14:48:30.875Z,95361.31
2019-01-17T14:50:59.268Z,95364.66
2019-01-17T14:53:27.701Z,95374.40
2019-01-17T14:55:56.089Z,95385.66
2019-01-17T14:58:24.557Z,95379.95
2019-01-17T15:00:52.972Z,95379.34
2019-01-17T15:03:21.368Z,95384.00
2019-01-17T15:05:49.757Z,95396.56
2019-01-17T15:08:18.263Z,95394.30
2019-01-17T15:10:46.716Z,95415.89
2019-01-17T15:13:15.107Z,95419.39
2019-01-17T15:16:02.852Z,95416.98
2019-01-17T15:18:31.242Z,95419.33
2019-01-17T15:20:59.629Z,95427.27
2019-01-17T15:23:47.374Z,95429.44
2019-01-17T15:26:15.766Z,95431.10
2019-01-17T15:28:44.160Z,95439.19
2019-01-17T15:33:46.510Z,95448.77
2019-01-17T15:38:49.306Z,95455.55
2019-01-17T15:41:17.761Z,95455.07
2019-01-17T15:43:46.156Z,95463.63
2019-01-17T15:46:14.553Z,95465.42
2019-01-17T15:51:17.571Z,95462.50
2019-01-17T15:56:19.902Z,95471.52
2019-01-17T15:58:48.289Z,95483.03
2019-01-17T16:03:51.076Z,95486.63
2019-01-17T16:06:19.488Z,95480.87
2019-01-17T16:08:47.888Z,95485.98
2019-01-17T16:11:16.288Z,95492.86
2019-01-17T16:13:44.700Z,95500.74
2019-01-17T16:16:13.091Z,95510.44
2019-01-17T16:18:41.493Z,95514.19
2019-01-17T16:21:09.934Z,95520.29
2019-01-17T16:23:38.325Z,95526.82
2019-01-17T16:26:06.721Z,95523.03
2019-01-17T16:28:35.145Z,95538.31
2019-01-17T16:31:03.609Z,95526.96
2019-01-17T16:33:32.007Z,95532.05
2019-01-17T16:36:00.425Z,95537.95
2019-01-17T16:38:28.815Z,95543.67
2019-01-17T16:40:57.214Z,95536.25
2019-01-17T16:45:59.385Z,95535.08
2019-01-17T16:51:01.802Z,95538.34
2019-01-17T17:01:32.260Z,95544.73
2019-01-17T17:06:34.529Z,95543.86
2019-01-17T17:12:01.327Z,95541.21
2019-01-17T17:14:29.721Z,95543.47
2019-01-17T17:16:58.123Z,95531.66
2019-01-17T17:19:26.549Z,95535.42
2019-01-17T17:21:54.947Z,95541.78
2019-01-17T17:24:23.347Z,95531.27
2019-01-17T17:29:25.992Z,95547.81
2019-01-17T17:32:13.741Z,95544.52
2019-01-17T17:34:42.137Z,95553.86
2019-01-17T17:37:10.531Z,95553.81
2019-01-17T17:42:12.836Z,95562.31
2019-01-17T17:44:41.239Z,95561.01
2019-01-17T17:52:18.879Z,95550.72
2019-01-17T17:54:47.336Z,95561.67
2019-01-17T17:57:15.719Z,95555.62
2019-01-17T17:59:44.171Z,95562.52
2019-01-17T18:02:31.768Z,95559.41
2019-01-17T18:05:00.220Z,95560.22
2019-01-17T18:07:28.573Z,95570.56
2019-01-17T18:09:56.969Z,95568.95
2019-01-17T18:12:37.898Z,95570.92
2019-01-17T18:15:46.210Z,95567.66
2019-01-17T18:18:14.736Z,95575.05
2019-01-17T18:20:43.126Z,95577.55
2019-01-17T18:23:30.778Z,95577.71
2019-01-17T18:25:59.172Z,95579.89
2019-01-17T18:28:27.566Z,95576.94
2019-01-17T18:30:55.978Z,95587.13
2019-01-17T18:33:24.440Z,95583.36
2019-01-17T18:36:12.193Z,95589.94
2019-01-17T18:38:40.665Z,95591.45
2019-01-17T18:41:09.064Z,95593.09
2019-01-17T18:46:11.771Z,95594.93
2019-01-17T18:51:33.414Z,95605.28
2019-01-17T18:54:01.841Z,95614.81
2019-01-17T18:56:30.239Z,95606.59
2019-01-17T18:58:58.622Z,95613.50
2019-01-17T19:04:01.007Z,95619.56
2019-01-17T19:06:48.777Z,95618.25
2019-01-17T19:09:17.171Z,95621.38
2019-01-17T19:11:45.566Z,95608.88
2019-01-17T19:14:13.971Z,95624.16
2019-01-17T19:16:42.372Z,95624.30
2019-01-17T19:19:10.767Z,95626.58
2019-01-17T19:24:12.766Z,95630.70
2019-01-17T19:26:41.162Z,95633.79
2019-01-17T19:29:09.586Z,95637.41
2019-01-17T19:31:38.045Z,95629.53
2019-01-17T19:34:06.438Z,95630.03
2019-01-17T19:36:34.881Z,95635.75
2019-01-17T19:45:09.309Z,95628.87
2019-01-17T19:47:37.708Z,95630.67
2019-01-17T19:50:46.046Z,95639.52
2019-01-17T19:53:14.446Z,95643.10
2019-01-17T19:55:43.249Z,95641.80
2019-01-17T19:58:11.669Z,95641.33
2019-01-17T20:00:59.404Z,95643.80
2019-01-17T20:03:27.839Z,95644.42
2019-01-17T20:05:56.228Z,95623.11
2019-01-17T20:08:24.624Z,95642.95
2019-01-17T20:10:53.185Z,95642.95
2019-01-17T20:13:21.545Z,95640.02
2019-01-17T20:15:50.017Z,95637.24
2019-01-17T20:18:18.444Z,95638.36
2019-01-17T20:20:46.870Z,95643.28
2019-01-17T20:23:15.245Z,95646.88
2019-01-17T20:28:18.067Z,95642.63
2019-01-17T20:33:20.544Z,95648.83
2019-01-17T20:35:48.975Z,95660.12
2019-01-17T20:38:17.435Z,95653.24
2019-01-17T20:40:45.836Z,95656.34
2019-01-17T20:46:07.320Z,95658.29
2019-01-17T20:51:09.990Z,95665.99
2019-01-17T20:53:38.422Z,95680.11
2019-01-17T20:56:26.015Z,95679.09
2019-01-17T20:58:54.476Z,95680.05
2019-01-17T21:02:02.890Z,95687.25
2019-01-17T21:04:31.284Z,95688.04
2019-01-17T21:07:05.508Z,95687.87
2019-01-17T21:09:29.868Z,95688.19
2019-01-17T21:11:58.302Z,95705.03
2019-01-17T21:14:26.780Z,95699.94
2019-01-17T21:17:14.550Z,95704.05
2019-01-17T21:19:42.941Z,95707.78
2019-01-17T21:22:11.341Z,95705.80
2019-01-17T21:24:39.781Z,95706.78
2019-01-17T21:27:08.175Z,95715.30
2019-01-17T21:30:16.588Z,95712.14
2019-01-17T21:33:24.978Z,95714.42
2019-01-17T21:36:12.682Z,95713.75
2019-01-17T21:38:41.064Z,95716.05
2019-01-17T21:41:09.528Z,95716.69
2019-01-17T21:43:37.986Z,95727.17
2019-01-17T21:46:06.382Z,95728.95
2019-01-17T21:48:34.793Z,95730.76
2019-01-17T21:53:37.548Z,95733.06
2019-01-17T21:56:05.997Z,95736.36
2019-01-17T21:58:56.011Z,95735.19
2019-01-17T22:01:42.970Z,95745.50
2019-01-17T22:04:30.584Z,95745.64
2019-01-17T22:09:33.533Z,95759.17
2019-01-17T22:14:35.882Z,95765.41
2019-01-17T22:17:23.552Z,95767.36
2019-01-17T22:20:04.496Z,95771.44
2019-01-17T22:22:32.929Z,95781.56
2019-01-17T22:25:02.707Z,95771.25
2019-01-17T22:27:31.440Z,95774.83
2019-01-17T22:29:59.890Z,95773.66
2019-01-17T22:32:28.282Z,95778.58
2019-01-17T22:34:56.680Z,95779.54
2019-01-17T22:37:25.163Z,95783.47
2019-01-17T22:39:53.554Z,95776.45
2019-01-17T22:42:21.950Z,95771.21
2019-01-17T22:47:29.356Z,95773.30
2019-01-17T22:49:57.744Z,95775.08
2019-01-17T22:52:26.133Z,95777.02
2019-01-17T22:57:28.894Z,95783.88
2019-01-17T22:59:57.340Z,95789.77
2019-01-17T23:02:25.796Z,95795.47
2019-01-17T23:04:54.180Z,95801.70
2019-01-17T23:09:56.457Z,95800.20
2019-01-17T23:14:59.020Z,95805.09
2019-01-17T23:17:27.428Z,95803.45
2019-01-17T23:19:55.821Z,95800.97
2019-01-17T23:22:36.769Z,95811.31
2019-01-17T23:25:45.079Z,95806.89
2019-01-17T23:30:47.658Z,95828.48
2019-01-17T23:33:16.054Z,95823.03
2019-01-17T23:35:44.450Z,95821.53
2019-01-17T23:38:12.844Z,95828.58
2019-01-17T23:41:00.456Z,95829.39
2019-01-17T23:43:28.846Z,95820.72
2019-01-17T23:46:16.490Z,95812.18
2019-01-17T23:48:44.892Z,95816.60
2019-01-17T23:51:13.284Z,95808.25
2019-01-17T23:53:41.719Z,95818.19
2019-01-17T23:56:10.150Z,95821.26
2019-01-17T23:58:38.500Z,95831.56
